메인 페이지
METAR-TAF:

METAR-TAF

공항 :

카옌, 프랑스령 기아나

카옌로 샹부 공항

위도: 04-50N, 경도: 052-22W, 고도: 105m

현재 날씨관측

예보는 19분 전, 18:30시(UTC)에 발표되었습니다.
동북동4kt북북동풍과 동남동풍을 오가는
온도 28°C
습도 79%
기압 1010 hPa
시정 10km 이상
고도 2000ft 상공 구름 조금
고도 2600ft 상공 구름 많음
고도 3500ft 상공 구름 많음

METAR: SOCA 161830Z AUTO 07004KT 020V110 9999 FEW020 BKN026 BKN035 28/24 Q1010 TEMPO 2000 SHRA BKN013TCU

시각: 15:49 (18:49 UTC)

예보

예보는 1 시간 49분 전, 17:00시(UTC)에 발표되었습니다.
예보 대상 시간: 16일 18시부터 17일 18시까지 (UTC)
6kt
시정 10km 이상
고도 2000ft 상공 구름 많음
고도 18000ft 상공 구름 많음
일시적
16일 18시부터 17일 18시까지 (UTC)
시정: 2000m
고도 1300ft 상공 구름 많음, 타워링 적운.
소나기
확률 30% :
일시적
17일 15시부터 17일 18시까지 (UTC)
여러 방향의 바람 15kt, 순간 최대 풍속 25kt
시정: 1000m
고도 500ft 상공 구름 조금
고도 1000ft 상공 구름 보통, 적란운.

TAF: SOCA 161700Z 1618/1718 10006KT 9999 BKN020 BKN180 TEMPO 1618/1718 2000 SHRA BKN013TCU PROB30 TEMPO 1715/1718 VRB15G25KT 1000 FEW005 SCT010CB

4,000개 이상의 공항 관측 자료 및 예보 (METAR 및 TAF 보고).

지도상에서 검색 가능한 기상관측소가 노란 점과 빨간 점으로 표시되어 있습니다.

기상관측소 명을 보려면 표시 위로 마우스를 이동하세요.

날씨 관측과 예보를 보려면 클릭하세요.

지도 변경 : 확대하려면 엑스 표시가 있는 녹색 버튼, 축소하려면 빼기 표시가 있는 녹색 버튼, 다음 페이지의 지도를 보려면 녹색 화살표를 클릭하세요.


METAR-TAF: